Time;durP1;ratioP1;P1;durP2;ratioP2;P2;SDS_P1;SDS_P2;PMS_P1;PMS_P2;Temp;Humidity;BMP_temperature;BMP_pressure;BME280_temperature;BME280_humidity;BME280_pressure;Samples;Min_cycle;Max_cycle;Signal;HPM_P1;HPM_P2
2022/01/25 00:24:23;;;;;;;82.25;37.58;;;;;;;;;;5018073;28;20025;-76
2022/01/25 00:32:11;;;;;;;80.97;38.25;;;;;;;;;;5018483;28;20025;-75
2022/01/25 00:34:37;;;;;;;80.55;37.35;;;;;;;;;;5034516;28;20120;-75
2022/01/25 00:37:03;;;;;;;83.15;40.10;;;;;;;;;;5018654;28;20018;-75
2022/01/25 00:39:30;;;;;;;76.60;38.00;;;;;;;;;;5034902;28;20424;-76
2022/01/25 00:41:56;;;;;;;85.68;36.40;;;;;;;;;;5018364;28;20032;-76
2022/01/25 00:44:24;;;;;;;77.75;36.20;;;;;;;;;;5018025;28;20028;-76
2022/01/25 00:46:50;;;;;;;80.57;35.17;;;;;;;;;;5034946;28;20096;-76
2022/01/25 00:49:26;;;;;;;90.07;37.00;;;;;;;;;;5036167;28;20021;-76
2022/01/25 00:54:32;;;;;;;72.30;33.35;;;;;;;;;;5035445;28;20420;-76
2022/01/25 00:56:59;;;;;;;77.68;33.80;;;;;;;;;;5018527;28;20097;-76
2022/01/25 00:59:29;;;;;;;85.75;34.90;;;;;;;;;;5018170;28;20025;-76
2022/01/25 01:01:56;;;;;;;86.05;37.15;;;;;;;;;;5036028;28;20025;-76
2022/01/25 01:04:23;;;;;;;91.07;41.60;;;;;;;;;;5035542;28;20064;-76
2022/01/25 01:06:50;;;;;;;112.15;47.42;;;;;;;;;;5035100;28;20033;-75
2022/01/25 01:09:18;;;;;;;110.68;47.03;;;;;;;;;;5034749;28;20423;-76
2022/01/25 01:11:56;;;;;;;111.50;43.40;;;;;;;;;;5036032;28;20029;-76
2022/01/25 01:29:04;;;;;;;94.95;40.60;;;;;;;;;;5027832;28;20037;-75
2022/01/25 01:34:27;;;;;;;85.85;33.72;;;;;;;;;;5035739;28;20048;-76
2022/01/25 01:36:57;;;;;;;94.68;45.83;;;;;;;;;;5016593;28;20360;-76
2022/01/25 01:42:15;;;;;;;92.50;37.35;;;;;;;;;;5021852;28;20499;-75
2022/01/25 01:45:06;;;;;;;81.35;36.95;;;;;;;;;;5021817;28;20423;-76
2022/01/25 01:47:42;;;;;;;97.85;38.72;;;;;;;;;;5039561;28;20026;-76
2022/01/25 01:50:13;;;;;;;81.47;36.83;;;;;;;;;;5021788;28;20029;-76
2022/01/25 01:52:39;;;;;;;83.28;39.08;;;;;;;;;;5005744;28;20032;-76
2022/01/25 01:55:06;;;;;;;90.90;39.35;;;;;;;;;;5038176;28;20037;-77
2022/01/25 01:57:33;;;;;;;86.13;36.35;;;;;;;;;;5039398;28;20048;-76
2022/01/25 01:59:59;;;;;;;71.10;35.60;;;;;;;;;;5039540;28;20022;-76
2022/01/25 02:02:25;;;;;;;93.45;39.80;;;;;;;;;;5021583;28;20374;-76
2022/01/25 02:04:51;;;;;;;74.43;37.40;;;;;;;;;;5038885;28;20072;-76
2022/01/25 02:07:17;;;;;;;92.38;41.90;;;;;;;;;;5021467;28;20018;-76
2022/01/25 02:09:43;;;;;;;92.78;42.28;;;;;;;;;;5039192;28;20123;-76
2022/01/25 02:12:09;;;;;;;110.57;46.00;;;;;;;;;;5038909;28;20021;-76
2022/01/25 02:14:37;;;;;;;121.63;47.80;;;;;;;;;;5039123;28;20424;-76
2022/01/25 02:17:23;;;;;;;99.93;47.00;;;;;;;;;;5038893;28;20028;-76
2022/01/25 02:22:48;;;;;;;75.25;35.45;;;;;;;;;;5038152;28;20030;-76
2022/01/25 02:25:15;;;;;;;84.05;38.20;;;;;;;;;;5020896;28;20406;-76
2022/01/25 02:27:41;;;;;;;93.07;41.38;;;;;;;;;;5038088;28;20025;-76
2022/01/25 02:30:07;;;;;;;99.93;44.13;;;;;;;;;;5037451;28;20025;-76
2022/01/25 02:32:33;;;;;;;94.15;38.65;;;;;;;;;;5004211;28;20037;-76
2022/01/25 02:35:02;;;;;;;96.85;39.30;;;;;;;;;;5038486;28;20038;-76
2022/01/25 02:37:28;;;;;;;97.05;37.70;;;;;;;;;;5020917;28;20423;-76
2022/01/25 02:39:56;;;;;;;99.88;39.30;;;;;;;;;;5020440;28;20026;-76
2022/01/25 02:42:23;;;;;;;83.30;40.25;;;;;;;;;;5004210;28;20021;-76
2022/01/25 02:44:49;;;;;;;82.10;38.10;;;;;;;;;;5036300;28;20079;-76
2022/01/25 02:50:00;;;;;;;98.55;40.63;;;;;;;;;;5020282;28;20033;-76
2022/01/25 02:52:26;;;;;;;95.60;42.00;;;;;;;;;;5036659;28;20457;-76
2022/01/25 02:54:53;;;;;;;85.47;36.83;;;;;;;;;;5020069;28;20334;-75
2022/01/25 02:57:20;;;;;;;82.57;38.25;;;;;;;;;;5019818;28;20024;-76
2022/01/25 02:59:46;;;;;;;82.15;36.50;;;;;;;;;;5036754;28;20036;-77
2022/01/25 03:02:12;;;;;;;82.30;36.35;;;;;;;;;;5019438;28;20340;-76
2022/01/25 03:04:39;;;;;;;97.40;43.38;;;;;;;;;;5019386;28;20072;-76
2022/01/25 03:07:07;;;;;;;91.40;41.65;;;;;;;;;;5036539;28;20371;-77
2022/01/25 03:09:34;;;;;;;99.28;46.75;;;;;;;;;;5035016;28;20110;-77
2022/01/25 03:12:04;;;;;;;99.45;46.78;;;;;;;;;;5035561;28;20099;-76
2022/01/25 03:14:33;;;;;;;82.38;35.05;;;;;;;;;;5036462;28;20033;-78
2022/01/25 03:22:43;;;;;;;83.93;34.28;;;;;;;;;;5019165;28;20108;-76
2022/01/25 03:25:02;;;;;;;;;;;;;;;;;;5035982;28;20149;-76
2022/01/25 03:27:28;;;;;;;68.88;29.65;;;;;;;;;;5036600;28;19936;-76
2022/01/25 03:29:54;;;;;;;72.97;34.03;;;;;;;;;;5018921;28;20394;-76
2022/01/25 03:32:21;;;;;;;71.25;32.42;;;;;;;;;;5036397;28;20049;-76
2022/01/25 03:34:47;;;;;;;56.05;28.73;;;;;;;;;;5035184;28;20360;-76
2022/01/25 03:37:13;;;;;;;67.72;29.48;;;;;;;;;;5018401;28;20026;-76
2022/01/25 03:39:39;;;;;;;72.15;29.73;;;;;;;;;;5018679;28;20104;-76
2022/01/25 03:42:08;;;;;;;53.38;25.85;;;;;;;;;;5035287;28;20065;-76
2022/01/25 03:44:35;;;;;;;64.88;30.02;;;;;;;;;;5034959;28;20420;-76
2022/01/25 03:47:07;;;;;;;63.15;30.98;;;;;;;;;;5018081;28;20022;-76
2022/01/25 03:49:52;;;;;;;72.22;30.05;;;;;;;;;;5034213;28;20054;-76
2022/01/25 03:52:32;;;;;;;64.97;28.27;;;;;;;;;;5018018;28;20024;-76
2022/01/25 03:54:59;;;;;;;60.42;30.05;;;;;;;;;;5033421;28;20026;-77
2022/01/25 03:57:28;;;;;;;66.05;30.70;;;;;;;;;;5016165;28;20418;-76
2022/01/25 03:59:58;;;;;;;56.80;25.52;;;;;;;;;;5017525;28;20120;-76
2022/01/25 04:02:26;;;;;;;54.30;24.52;;;;;;;;;;5034483;28;20108;-77
2022/01/25 04:04:56;;;;;;;71.97;28.27;;;;;;;;;;5035648;28;20014;-76
2022/01/25 04:07:31;;;;;;;52.92;26.77;;;;;;;;;;5018174;28;20021;-77
2022/01/25 04:09:57;;;;;;;67.25;28.60;;;;;;;;;;5034731;28;20036;-77
2022/01/25 04:12:23;;;;;;;51.65;24.98;;;;;;;;;;5001683;28;20401;-77
2022/01/25 04:14:50;;;;;;;62.47;28.65;;;;;;;;;;5035773;28;20051;-77
2022/01/25 04:17:22;;;;;;;59.13;26.55;;;;;;;;;;5018202;28;20025;-77
2022/01/25 04:20:12;;;;;;;62.55;27.13;;;;;;;;;;5035202;28;20030;-76
2022/01/25 04:25:25;;;;;;;63.30;30.42;;;;;;;;;;5020391;28;20336;-77
2022/01/25 04:27:52;;;;;;;72.38;30.52;;;;;;;;;;5033374;28;20425;-77
2022/01/25 04:30:19;;;;;;;63.50;27.52;;;;;;;;;;5016875;28;20034;-77
2022/01/25 04:33:03;;;;;;;53.88;25.40;;;;;;;;;;5034149;28;20327;-76
2022/01/25 04:49:01;;;;;;;46.63;23.55;;;;;;;;;;5074722;28;20135;-77
2022/01/25 04:51:41;;;;;;;66.47;27.77;;;;;;;;;;5056678;28;20012;-77
2022/01/25 04:56:54;;;;;;;48.50;27.25;;;;;;;;;;5075192;28;20032;-76
2022/01/25 04:59:31;;;;;;;53.67;24.38;;;;;;;;;;5060423;22;20056;-76
2022/01/25 05:02:06;;;;;;;52.15;26.15;;;;;;;;;;5050946;23;20112;-77
2022/01/25 05:04:38;;;;;;;53.65;26.25;;;;;;;;;;5053559;28;20415;-75
2022/01/25 05:07:17;;;;;;;59.63;27.95;;;;;;;;;;5053914;28;20431;-74
2022/01/25 05:09:45;;;;;;;49.22;21.65;;;;;;;;;;5071286;22;20102;-74
2022/01/25 05:12:12;;;;;;;69.80;30.77;;;;;;;;;;5044194;28;20107;-75
2022/01/25 05:15:18;;;;;;;59.65;25.52;;;;;;;;;;5045021;28;20476;-75
2022/01/25 05:34:25;;;;;;;46.05;23.80;;;;;;;;;;5078736;28;20373;-75
2022/01/25 05:36:55;;;;;;;52.88;25.55;;;;;;;;;;5044689;28;20066;-75
2022/01/25 05:39:29;;;;;;;51.47;29.83;;;;;;;;;;5044869;28;20023;-76
2022/01/25 05:42:16;;;;;;;56.33;29.25;;;;;;;;;;5045386;28;20035;-76
2022/01/25 05:44:55;;;;;;;58.55;27.48;;;;;;;;;;5044544;28;20017;-76
2022/01/25 05:47:28;;;;;;;56.38;21.42;;;;;;;;;;5044031;28;20083;-77
2022/01/25 05:49:55;;;;;;;60.38;30.17;;;;;;;;;;5043917;28;20106;-75
2022/01/25 05:52:22;;;;;;;65.32;26.23;;;;;;;;;;5061009;28;20046;-75
2022/01/25 05:54:48;;;;;;;47.80;27.30;;;;;;;;;;5060942;28;20048;-76
2022/01/25 05:57:17;;;;;;;48.30;26.17;;;;;;;;;;5044724;28;20415;-75
2022/01/25 05:59:44;;;;;;;49.67;24.08;;;;;;;;;;5044049;28;20036;-75
2022/01/25 06:02:10;;;;;;;58.38;28.60;;;;;;;;;;5079188;28;20413;-74
2022/01/25 06:04:36;;;;;;;48.65;24.88;;;;;;;;;;5060263;28;20028;-77
2022/01/25 06:07:03;;;;;;;63.10;26.13;;;;;;;;;;5060364;28;20017;-75
2022/01/25 06:09:29;;;;;;;65.85;28.80;;;;;;;;;;5077840;28;20028;-73
2022/01/25 06:11:56;;;;;;;49.17;22.27;;;;;;;;;;5061049;28;20307;-77
2022/01/25 09:49:25;;;;;;;75.93;34.13;;;;;;;;;;6165260;22;2801817;-76
2022/01/25 09:51:52;;;;;;;73.65;35.33;;;;;;;;;;6256643;22;20058;-76
2022/01/25 09:54:18;;;;;;;80.93;38.03;;;;;;;;;;6255383;23;19992;-76
2022/01/25 09:56:44;;;;;;;74.18;35.55;;;;;;;;;;6255257;23;20462;-76
2022/01/25 09:59:10;;;;;;;87.78;35.00;;;;;;;;;;6255247;23;20059;-76
2022/01/25 10:01:37;;;;;;;81.72;37.50;;;;;;;;;;6254286;23;20019;-77
2022/01/25 10:04:05;;;;;;;64.03;33.08;;;;;;;;;;6256155;22;20002;-77
2022/01/25 10:06:32;;;;;;;68.25;34.22;;;;;;;;;;6255301;23;20074;-74
2022/01/25 10:08:58;;;;;;;78.65;34.92;;;;;;;;;;6256579;22;19991;-76
2022/01/25 10:11:25;;;;;;;77.03;30.08;;;;;;;;;;6256644;22;20117;-76
2022/01/25 10:13:56;;;;;;;77.50;33.47;;;;;;;;;;6255156;23;19996;-76
2022/01/25 10:16:29;;;;;;;89.22;38.33;;;;;;;;;;6256581;22;19996;-77
2022/01/25 10:18:56;;;;;;;80.57;34.67;;;;;;;;;;6256352;22;20106;-76
2022/01/25 10:21:28;;;;;;;77.35;34.65;;;;;;;;;;6254850;23;20055;-78
2022/01/25 10:24:07;;;;;;;72.97;33.47;;;;;;;;;;6255831;23;20067;-76
2022/01/25 10:26:33;;;;;;;84.65;35.95;;;;;;;;;;6256495;22;20003;-76
2022/01/25 10:28:59;;;;;;;74.10;31.33;;;;;;;;;;6255022;23;20451;-73
2022/01/25 10:31:57;;;;;;;76.80;35.13;;;;;;;;;;6256688;22;19996;-76
2022/01/25 10:34:32;;;;;;;71.20;33.85;;;;;;;;;;6218063;23;20023;-77
2022/01/25 10:37:00;;;;;;;71.03;33.22;;;;;;;;;;6255974;22;20011;-77
2022/01/25 10:42:48;;;;;;;79.07;33.92;;;;;;;;;;6255787;23;20050;-76
2022/01/25 10:45:17;;;;;;;66.13;30.85;;;;;;;;;;6256119;22;19992;-77
2022/01/25 10:47:45;;;;;;;63.50;30.52;;;;;;;;;;6230602;23;20061;-77
2022/01/25 10:50:12;;;;;;;66.40;31.15;;;;;;;;;;6248584;23;20012;-77
2022/01/25 10:52:38;;;;;;;80.47;34.30;;;;;;;;;;6248931;22;19988;-76
2022/01/25 10:55:05;;;;;;;73.78;30.70;;;;;;;;;;6248474;23;19996;-77
2022/01/25 10:57:31;;;;;;;71.85;35.25;;;;;;;;;;6249541;22;20004;-77
2022/01/25 10:59:58;;;;;;;75.65;34.97;;;;;;;;;;6249758;22;20341;-77
2022/01/25 11:02:25;;;;;;;75.30;31.92;;;;;;;;;;6248139;23;20048;-76
2022/01/25 11:04:52;;;;;;;76.30;35.60;;;;;;;;;;6248081;23;20473;-76
2022/01/25 11:07:18;;;;;;;73.00;35.35;;;;;;;;;;6247778;23;19996;-76
2022/01/25 11:09:47;;;;;;;84.22;33.42;;;;;;;;;;6248080;23;20386;-76
2022/01/25 11:12:16;;;;;;;72.13;32.30;;;;;;;;;;6253727;22;20057;-76
2022/01/25 11:14:53;;;;;;;74.10;33.20;;;;;;;;;;6248839;23;19999;-77
2022/01/25 11:17:26;;;;;;;71.75;32.13;;;;;;;;;;6249789;22;20317;-76
2022/01/25 11:19:52;;;;;;;71.28;33.45;;;;;;;;;;6247983;23;19993;-75
2022/01/25 11:22:22;;;;;;;77.70;34.53;;;;;;;;;;6252265;22;19992;-77
2022/01/25 11:24:52;;;;;;;70.75;32.88;;;;;;;;;;6268467;22;19992;-77
2022/01/25 11:27:19;;;;;;;82.32;33.28;;;;;;;;;;6266953;22;20015;-77
2022/01/25 11:29:46;;;;;;;75.50;35.17;;;;;;;;;;6249318;22;19988;-76
2022/01/25 11:32:13;;;;;;;84.22;36.90;;;;;;;;;;6247250;23;20389;-76
2022/01/25 11:34:40;;;;;;;96.93;37.45;;;;;;;;;;6249065;22;20058;-77
2022/01/25 11:37:07;;;;;;;93.90;39.28;;;;;;;;;;6249076;22;20004;-77
2022/01/25 11:39:34;;;;;;;101.80;41.78;;;;;;;;;;6247500;23;19999;-76
2022/01/25 11:42:04;;;;;;;96.03;36.47;;;;;;;;;;6248411;22;19989;-77
2022/01/25 11:44:31;;;;;;;95.15;37.72;;;;;;;;;;6247392;23;20401;-76
2022/01/25 11:47:04;;;;;;;102.65;40.10;;;;;;;;;;6249009;22;20055;-76
2022/01/25 11:49:30;;;;;;;73.47;39.53;;;;;;;;;;6248906;22;20071;-75
2022/01/25 11:52:24;;;;;;;84.10;40.65;;;;;;;;;;6248935;22;19992;-77
2022/01/25 11:54:52;;;;;;;90.20;38.95;;;;;;;;;;6245544;23;19996;-76
2022/01/25 11:57:25;;;;;;;92.25;40.47;;;;;;;;;;6248753;22;20283;-76
2022/01/25 11:59:54;;;;;;;90.53;40.13;;;;;;;;;;6248840;22;20003;-77
2022/01/25 12:02:38;;;;;;;84.50;40.38;;;;;;;;;;6248627;22;20016;-77
2022/01/25 12:05:09;;;;;;;111.93;45.28;;;;;;;;;;6247354;23;19996;-77
2022/01/25 12:07:40;;;;;;;;;;;;;;;;;;6247150;23;20408;-76
2022/01/25 12:10:26;;;;;;;98.10;42.20;;;;;;;;;;6246644;23;19906;-77
2022/01/25 12:13:11;;;;;;;107.05;44.25;;;;;;;;;;6231911;23;20000;-77
2022/01/25 12:15:37;;;;;;;88.38;42.42;;;;;;;;;;6248713;23;19996;-77
2022/01/25 12:18:03;;;;;;;109.90;43.25;;;;;;;;;;6248674;22;20004;-76
2022/01/25 12:20:29;;;;;;;104.28;45.13;;;;;;;;;;6247903;22;20015;-77
2022/01/25 12:23:17;;;;;;;100.25;47.05;;;;;;;;;;6246501;23;20012;-76
2022/01/25 12:25:53;;;;;;;116.55;53.20;;;;;;;;;;6248742;22;20000;-77
2022/01/25 12:28:29;;;;;;;116.50;50.95;;;;;;;;;;6248540;22;19992;-77
2022/01/25 12:30:59;;;;;;;139.35;56.15;;;;;;;;;;6247917;22;20353;-77
2022/01/25 12:33:29;;;;;;;159.85;74.30;;;;;;;;;;6246580;23;19988;-77
2022/01/25 12:36:03;;;;;;;125.93;60.25;;;;;;;;;;6249462;22;20405;-77
2022/01/25 12:38:38;;;;;;;117.68;54.55;;;;;;;;;;6248845;22;20043;-76
2022/01/25 12:41:15;;;;;;;128.48;53.75;;;;;;;;;;6248014;22;19993;-77
2022/01/25 12:43:47;;;;;;;125.13;51.20;;;;;;;;;;6247558;23;20000;-77
2022/01/25 12:48:46;;;;;;;119.15;51.35;;;;;;;;;;6261551;23;19915;-76
2022/01/25 12:51:17;;;;;;;127.28;56.10;;;;;;;;;;6248470;22;20111;-76
2022/01/25 12:53:43;;;;;;;;;;;;;;;;;;6248829;22;19999;-76
2022/01/25 12:56:17;;;;;;;129.38;52.58;;;;;;;;;;6248374;22;20205;-77
2022/01/25 12:58:44;;;;;;;92.25;43.88;;;;;;;;;;6246112;23;20091;-76
2022/01/25 13:01:12;;;;;;;106.07;47.72;;;;;;;;;;6246861;23;19989;-76
2022/01/25 13:03:41;;;;;;;105.25;50.88;;;;;;;;;;6248282;22;19999;-77
2022/01/25 13:06:10;;;;;;;93.43;41.65;;;;;;;;;;6248259;22;19988;-77
2022/01/25 13:08:40;;;;;;;96.35;46.13;;;;;;;;;;6248309;22;19996;-77
2022/01/25 13:16:52;;;;;;;87.95;37.30;;;;;;;;;;6255216;22;20198;-82
2022/01/25 13:19:21;;;;;;;87.93;38.20;;;;;;;;;;6255190;22;20001;-82
2022/01/25 13:21:53;;;;;;;83.70;41.28;;;;;;;;;;6253936;22;19999;-82
2022/01/25 13:24:21;;;;;;;91.57;44.90;;;;;;;;;;6252508;23;19992;-82
2022/01/25 13:26:51;;;;;;;90.40;37.50;;;;;;;;;;6228469;23;19996;-82
2022/01/25 13:32:12;;;;;;;109.90;48.25;;;;;;;;;;6254944;23;20416;-82
2022/01/25 13:34:38;;;;;;;109.43;49.92;;;;;;;;;;6253841;22;20408;-82
2022/01/25 13:37:04;;;;;;;110.30;44.97;;;;;;;;;;6253377;22;20004;-82
2022/01/25 13:39:30;;;;;;;81.93;40.78;;;;;;;;;;6254198;22;20037;-82
2022/01/25 13:42:09;;;;;;;99.60;44.97;;;;;;;;;;6254475;22;19996;-82
2022/01/25 13:47:20;;;;;;;122.35;55.47;;;;;;;;;;6252017;23;19988;-81
2022/01/25 13:49:47;;;;;;;128.48;54.25;;;;;;;;;;6249087;22;20070;-81
2022/01/25 13:52:13;;;;;;;121.00;55.72;;;;;;;;;;6247321;23;19992;-81
2022/01/25 13:54:39;;;;;;;128.13;57.30;;;;;;;;;;6248437;23;20016;-81
2022/01/25 13:57:09;;;;;;;118.68;54.85;;;;;;;;;;6247694;22;20004;-81
2022/01/25 13:59:35;;;;;;;104.38;52.22;;;;;;;;;;6249597;22;20364;-82
2022/01/25 14:02:01;;;;;;;105.63;48.13;;;;;;;;;;6248622;22;20386;-81
2022/01/25 14:04:28;;;;;;;105.78;48.42;;;;;;;;;;6247947;22;19996;-81
2022/01/25 14:06:56;;;;;;;99.55;45.05;;;;;;;;;;6250408;22;19993;-82
2022/01/25 14:09:34;;;;;;;111.50;47.08;;;;;;;;;;6248349;22;20321;-81
2022/01/25 14:23:08;;;;;;;97.00;43.85;;;;;;;;;;6278447;22;20057;-76
2022/01/25 14:25:38;;;;;;;107.88;46.78;;;;;;;;;;6280115;22;20067;-76
2022/01/25 14:28:06;;;;;;;105.63;51.42;;;;;;;;;;6280311;22;19999;-76
2022/01/25 14:30:33;;;;;;;115.97;53.78;;;;;;;;;;6253068;22;19995;-76
2022/01/25 14:33:10;;;;;;;124.47;55.20;;;;;;;;;;6282211;22;19995;-76
2022/01/25 14:35:56;;;;;;;130.80;60.33;;;;;;;;;;6267850;22;19996;-76
2022/01/25 14:38:22;;;;;;;122.30;55.58;;;;;;;;;;6260335;22;20024;-75
2022/01/25 14:41:06;;;;;;;114.53;56.05;;;;;;;;;;6244976;22;20012;-75
2022/01/25 14:43:35;;;;;;;126.65;60.10;;;;;;;;;;6249184;22;20077;-75
2022/01/25 14:46:12;;;;;;;134.35;57.05;;;;;;;;;;6249088;22;20079;-76
2022/01/25 14:48:41;;;;;;;133.07;62.53;;;;;;;;;;6249279;22;19988;-76
2022/01/25 14:51:08;;;;;;;140.75;63.00;;;;;;;;;;6247909;23;20004;-75
2022/01/25 14:53:35;;;;;;;133.65;64.65;;;;;;;;;;6248089;23;19988;-75
2022/01/25 14:56:02;;;;;;;142.88;57.47;;;;;;;;;;6249533;22;19985;-75
2022/01/25 15:01:14;;;;;;;129.98;49.13;;;;;;;;;;6247693;23;19988;-75
2022/01/25 15:03:41;;;;;;;106.75;50.22;;;;;;;;;;6249812;22;19992;-76
2022/01/25 15:06:07;;;;;;;112.32;51.80;;;;;;;;;;6249353;22;19988;-77
2022/01/25 15:08:33;;;;;;;106.82;48.63;;;;;;;;;;6249400;22;19997;-76
2022/01/25 15:11:02;;;;;;;109.88;51.25;;;;;;;;;;6247245;23;19989;-75
2022/01/25 15:13:29;;;;;;;109.15;47.67;;;;;;;;;;6249304;22;19996;-75
2022/01/25 15:15:56;;;;;;;105.18;47.25;;;;;;;;;;6248640;22;20015;-76
2022/01/25 15:18:27;;;;;;;119.90;51.10;;;;;;;;;;6222333;23;20008;-76
2022/01/25 15:20:54;;;;;;;109.35;53.40;;;;;;;;;;6248601;23;19999;-75
2022/01/25 15:23:22;;;;;;;113.32;55.42;;;;;;;;;;6248898;22;19996;-75
2022/01/25 15:25:55;;;;;;;111.28;54.60;;;;;;;;;;6248570;22;20010;-75
2022/01/25 15:28:28;;;;;;;119.07;55.05;;;;;;;;;;6247055;23;20402;-76
2022/01/25 15:30:54;;;;;;;99.55;47.83;;;;;;;;;;6249234;22;19988;-75
2022/01/25 15:33:22;;;;;;;105.40;50.85;;;;;;;;;;6248700;22;20007;-76
2022/01/25 15:35:48;;;;;;;106.68;48.20;;;;;;;;;;6248346;22;19988;-75
2022/01/25 15:38:14;;;;;;;111.63;51.30;;;;;;;;;;6247382;23;20409;-75
2022/01/25 15:40:40;;;;;;;106.68;46.53;;;;;;;;;;6256377;22;19996;-76
2022/01/25 15:43:07;;;;;;;103.05;45.45;;;;;;;;;;6252703;22;20038;-75
2022/01/25 15:45:53;;;;;;;98.90;48.67;;;;;;;;;;6278946;22;19988;-75
2022/01/25 15:48:19;;;;;;;107.20;48.20;;;;;;;;;;6279560;22;19992;-75
2022/01/25 15:50:45;;;;;;;100.85;48.10;;;;;;;;;;6279411;22;20290;-75
2022/01/25 15:53:11;;;;;;;105.30;49.85;;;;;;;;;;6252356;22;19992;-75
2022/01/25 15:55:37;;;;;;;124.38;50.92;;;;;;;;;;6279488;22;20377;-75
2022/01/25 15:58:05;;;;;;;105.13;50.38;;;;;;;;;;6279369;22;20011;-75
2022/01/25 16:00:31;;;;;;;118.90;59.13;;;;;;;;;;6279520;22;20067;-75
2022/01/25 16:02:59;;;;;;;139.35;59.85;;;;;;;;;;6252518;22;20278;-75
2022/01/25 16:05:25;;;;;;;109.65;53.05;;;;;;;;;;6279012;22;20381;-75
2022/01/25 16:07:53;;;;;;;121.10;59.63;;;;;;;;;;6279320;22;19992;-75
2022/01/25 16:10:22;;;;;;;111.97;55.03;;;;;;;;;;6279316;22;19992;-75
2022/01/25 16:12:48;;;;;;;107.40;44.97;;;;;;;;;;6278914;22;19988;-76
2022/01/25 16:15:14;;;;;;;109.70;53.28;;;;;;;;;;6279419;22;19992;-76
2022/01/25 16:17:40;;;;;;;108.82;51.20;;;;;;;;;;6279210;22;20004;-75
2022/01/25 16:20:08;;;;;;;110.45;52.90;;;;;;;;;;6251578;22;19992;-75
2022/01/25 16:22:34;;;;;;;102.60;50.10;;;;;;;;;;6279790;22;19984;-74
2022/01/25 16:25:00;;;;;;;106.32;48.75;;;;;;;;;;6251678;22;19996;-77
2022/01/25 16:27:26;;;;;;;93.45;45.70;;;;;;;;;;6252227;22;20397;-77
2022/01/25 16:29:52;;;;;;;90.38;42.28;;;;;;;;;;6279215;22;20390;-76
2022/01/25 16:32:21;;;;;;;100.82;45.60;;;;;;;;;;6251655;22;19995;-77
2022/01/25 16:34:47;;;;;;;87.53;40.15;;;;;;;;;;6279128;22;20412;-77
2022/01/25 16:37:16;;;;;;;99.45;47.25;;;;;;;;;;6258687;22;20004;-76
2022/01/25 16:39:42;;;;;;;103.03;43.17;;;;;;;;;;6252873;22;20086;-76
2022/01/25 16:42:08;;;;;;;85.78;42.85;;;;;;;;;;6247141;22;20492;-76
2022/01/25 16:44:34;;;;;;;99.72;47.45;;;;;;;;;;6278371;22;20019;-76
2022/01/25 16:47:00;;;;;;;94.68;44.30;;;;;;;;;;6278756;22;19987;-76
2022/01/25 16:49:26;;;;;;;100.95;45.88;;;;;;;;;;6278240;22;19999;-76
2022/01/25 16:51:52;;;;;;;107.70;47.20;;;;;;;;;;6251384;22;19987;-76
2022/01/25 16:54:18;;;;;;;99.22;48.47;;;;;;;;;;6278922;22;20003;-76
2022/01/25 16:56:44;;;;;;;101.30;47.38;;;;;;;;;;6278192;22;20417;-76
2022/01/25 16:59:11;;;;;;;127.30;50.10;;;;;;;;;;6251643;22;20007;-76
2022/01/25 17:01:37;;;;;;;125.82;49.15;;;;;;;;;;6278842;22;20067;-74
2022/01/25 17:04:04;;;;;;;123.32;48.70;;;;;;;;;;6278872;22;19992;-76
2022/01/25 17:06:30;;;;;;;127.68;52.90;;;;;;;;;;6251931;22;20378;-74
2022/01/25 17:08:57;;;;;;;119.50;53.55;;;;;;;;;;6251930;22;20460;-74
2022/01/25 17:11:23;;;;;;;116.20;53.45;;;;;;;;;;6278090;22;20096;-74
2022/01/25 17:13:49;;;;;;;123.60;55.55;;;;;;;;;;6278116;22;19992;-74
2022/01/25 17:16:15;;;;;;;139.05;62.83;;;;;;;;;;6251572;22;20030;-74
2022/01/25 17:18:45;;;;;;;136.65;63.17;;;;;;;;;;6251117;22;20053;-75
2022/01/25 17:21:11;;;;;;;146.43;69.95;;;;;;;;;;6226510;22;20317;-76
2022/01/25 17:23:37;;;;;;;151.80;73.10;;;;;;;;;;6278729;22;20419;-75
2022/01/25 17:26:03;;;;;;;193.50;87.88;;;;;;;;;;6278428;22;20352;-74
2022/01/25 17:28:29;;;;;;;191.05;88.43;;;;;;;;;;6277975;22;19996;-76
2022/01/25 17:30:57;;;;;;;219.55;102.88;;;;;;;;;;6251544;22;20002;-76
2022/01/25 17:33:27;;;;;;;216.75;99.47;;;;;;;;;;6251439;22;19995;-76
2022/01/25 17:35:53;;;;;;;216.25;95.40;;;;;;;;;;6251141;22;19999;-77
2022/01/25 17:38:20;;;;;;;220.27;94.22;;;;;;;;;;6278553;22;20050;-76
2022/01/25 17:40:46;;;;;;;182.27;83.95;;;;;;;;;;6278870;22;20455;-76
2022/01/25 17:43:15;;;;;;;178.68;84.63;;;;;;;;;;6278576;22;19992;-75
2022/01/25 17:45:44;;;;;;;186.60;84.32;;;;;;;;;;6278620;22;19995;-75
2022/01/25 17:48:10;;;;;;;226.82;101.88;;;;;;;;;;6277870;22;20317;-74
2022/01/25 17:50:37;;;;;;;213.63;96.95;;;;;;;;;;6278215;22;20297;-75
2022/01/25 17:53:03;;;;;;;213.85;96.43;;;;;;;;;;6277933;22;19996;-74
2022/01/25 17:55:29;;;;;;;219.85;103.50;;;;;;;;;;6277952;22;20068;-74
2022/01/25 17:57:55;;;;;;;215.10;94.47;;;;;;;;;;6278523;22;20041;-74
2022/01/25 18:00:21;;;;;;;226.25;94.57;;;;;;;;;;6280167;22;20305;-75
2022/01/25 18:02:48;;;;;;;219.85;94.70;;;;;;;;;;6279971;22;19996;-74
2022/01/25 18:05:14;;;;;;;204.75;86.47;;;;;;;;;;6280538;22;20003;-76
2022/01/25 18:07:41;;;;;;;185.88;80.57;;;;;;;;;;6279844;22;20063;-74
2022/01/25 18:10:08;;;;;;;195.60;84.05;;;;;;;;;;6280535;22;20031;-74
2022/01/25 18:12:34;;;;;;;181.65;79.72;;;;;;;;;;6253670;22;20063;-74
2022/01/25 18:15:00;;;;;;;183.88;81.45;;;;;;;;;;6280512;22;19992;-74
2022/01/25 18:17:26;;;;;;;208.50;90.43;;;;;;;;;;6279650;22;20016;-76
2022/01/25 18:19:52;;;;;;;228.13;98.85;;;;;;;;;;6252794;22;20003;-76
2022/01/25 18:22:27;;;;;;;220.05;99.25;;;;;;;;;;6280378;22;20053;-76
2022/01/25 18:25:05;;;;;;;205.65;93.50;;;;;;;;;;6279703;22;20405;-76
2022/01/25 18:27:31;;;;;;;212.77;90.03;;;;;;;;;;6280406;22;20077;-74
2022/01/25 18:29:59;;;;;;;206.55;93.43;;;;;;;;;;6253417;22;20386;-74
2022/01/25 18:32:27;;;;;;;188.02;81.80;;;;;;;;;;6253311;22;20476;-74
2022/01/25 18:34:53;;;;;;;218.00;94.38;;;;;;;;;;6279581;22;19994;-74
2022/01/25 18:37:19;;;;;;;212.27;91.18;;;;;;;;;;6279457;22;20004;-74
2022/01/25 18:39:45;;;;;;;210.93;92.07;;;;;;;;;;6281396;22;19991;-74
2022/01/25 18:42:12;;;;;;;195.75;86.40;;;;;;;;;;6253612;22;20428;-76
2022/01/25 18:44:38;;;;;;;194.40;84.63;;;;;;;;;;6253206;22;20015;-76
2022/01/25 18:47:05;;;;;;;183.82;83.05;;;;;;;;;;6280199;22;19996;-75
2022/01/25 18:49:31;;;;;;;176.25;75.32;;;;;;;;;;6253267;22;20386;-75
2022/01/25 18:51:57;;;;;;;144.90;68.57;;;;;;;;;;6280153;22;19996;-74
2022/01/25 18:54:23;;;;;;;156.00;68.85;;;;;;;;;;6279493;22;20037;-75
2022/01/25 18:56:50;;;;;;;161.82;76.55;;;;;;;;;;6280032;22;19995;-75
2022/01/25 18:59:17;;;;;;;168.63;74.32;;;;;;;;;;6280088;22;20388;-75
2022/01/25 19:01:44;;;;;;;175.55;73.00;;;;;;;;;;6281646;22;19992;-74
2022/01/25 19:04:10;;;;;;;161.32;74.50;;;;;;;;;;6261995;22;19984;-74
2022/01/25 19:06:36;;;;;;;158.23;69.78;;;;;;;;;;6280030;22;20000;-74
2022/01/25 19:09:03;;;;;;;159.45;70.05;;;;;;;;;;6253046;22;20041;-74
2022/01/25 19:11:29;;;;;;;147.30;67.88;;;;;;;;;;6278999;22;19991;-74
2022/01/25 19:13:55;;;;;;;156.75;69.53;;;;;;;;;;6279967;22;20348;-74
2022/01/25 19:16:22;;;;;;;148.32;67.13;;;;;;;;;;6279965;22;19998;-74
2022/01/25 19:18:48;;;;;;;129.38;59.40;;;;;;;;;;6279083;22;20078;-74
2022/01/25 19:21:14;;;;;;;134.43;58.30;;;;;;;;;;6279139;22;20067;-74
2022/01/25 19:23:40;;;;;;;140.80;59.85;;;;;;;;;;6252885;22;20389;-74
2022/01/25 19:26:06;;;;;;;138.18;58.40;;;;;;;;;;6252954;22;19999;-74
2022/01/25 19:28:32;;;;;;;134.00;58.35;;;;;;;;;;6279868;22;20348;-74
2022/01/25 19:30:58;;;;;;;144.52;63.80;;;;;;;;;;6279799;22;19992;-74
2022/01/25 19:33:24;;;;;;;156.77;67.93;;;;;;;;;;6279706;22;19988;-74
2022/01/25 19:35:51;;;;;;;134.50;62.08;;;;;;;;;;6252896;22;20057;-74
2022/01/25 19:38:17;;;;;;;166.45;72.60;;;;;;;;;;6252566;22;20066;-74
2022/01/25 19:40:45;;;;;;;157.13;71.90;;;;;;;;;;6279109;22;20007;-74
2022/01/25 19:43:15;;;;;;;155.50;72.18;;;;;;;;;;6252023;22;19995;-74
2022/01/25 19:45:41;;;;;;;166.18;70.93;;;;;;;;;;6279831;22;20046;-74
2022/01/25 19:48:07;;;;;;;174.75;78.60;;;;;;;;;;6279582;22;19988;-74
2022/01/25 19:50:39;;;;;;;163.68;75.75;;;;;;;;;;6252050;22;20002;-76
2022/01/25 19:53:07;;;;;;;168.52;73.47;;;;;;;;;;6279153;22;20373;-75
2022/01/25 19:55:37;;;;;;;149.00;69.78;;;;;;;;;;6279512;22;20049;-75
2022/01/25 19:58:03;;;;;;;149.70;70.43;;;;;;;;;;6252359;22;20500;-74
2022/01/25 20:00:30;;;;;;;153.82;71.47;;;;;;;;;;6278768;22;19996;-75
2022/01/25 20:02:56;;;;;;;144.95;63.47;;;;;;;;;;6279476;22;19992;-75
2022/01/25 20:05:22;;;;;;;141.32;62.65;;;;;;;;;;6278676;22;20063;-75